Time;durP1;ratioP1;P1;durP2;ratioP2;P2;SDS_P1;SDS_P2;PMS_P1;PMS_P2;Temp;Humidity;BMP_temperature;BMP_pressure;BME280_temperature;BME280_humidity;BME280_pressure;Samples;Min_cycle;Max_cycle;Signal;HPM_P1;HPM_P2
2022/05/16 00:00:57;;;;;;;3.03;1.50;;;11.70;99.90;;;;;;5030799;28;20508;-78
2022/05/16 00:03:27;;;;;;;2.30;1.90;;;11.60;99.90;;;;;;5031346;28;20476;-75
2022/05/16 00:05:55;;;;;;;4.90;2.23;;;11.60;99.90;;;;;;5041600;28;20448;-74
2022/05/16 00:08:23;;;;;;;4.30;1.97;;;11.60;99.90;;;;;;5040469;28;20448;-75
2022/05/16 00:10:51;;;;;;;2.93;2.27;;;11.60;99.90;;;;;;5041450;28;20460;-75
2022/05/16 00:13:20;;;;;;;2.90;1.80;;;11.50;99.90;;;;;;5041281;28;20448;-75
2022/05/16 00:15:48;;;;;;;2.20;1.83;;;11.50;99.90;;;;;;5041616;28;20446;-74
2022/05/16 00:18:16;;;;;;;1.70;1.55;;;11.50;99.90;;;;;;5041363;28;21062;-75
2022/05/16 00:20:46;;;;;;;2.80;1.33;;;11.40;99.90;;;;;;5022219;28;20226;-77
2022/05/16 00:23:14;;;;;;;1.93;1.73;;;11.40;99.90;;;;;;5023352;28;20503;-77
2022/05/16 00:25:42;;;;;;;1.30;1.20;;;11.30;99.90;;;;;;5022776;28;20449;-76
2022/05/16 00:28:10;;;;;;;3.57;1.90;;;11.30;99.90;;;;;;5021424;28;20476;-76
2022/05/16 00:30:38;;;;;;;4.00;2.23;;;11.30;99.90;;;;;;5021547;28;20464;-77
2022/05/16 00:33:06;;;;;;;2.00;1.53;;;11.30;99.90;;;;;;5021091;28;20442;-78
2022/05/16 00:35:34;;;;;;;2.90;1.67;;;11.20;99.90;;;;;;5021133;28;20434;-76
2022/05/16 00:38:03;;;;;;;6.13;2.50;;;11.20;99.90;;;;;;5020884;28;20425;-78
2022/05/16 00:40:31;;;;;;;2.90;1.83;;;11.20;99.90;;;;;;5021983;28;20476;-76
2022/05/16 00:43:03;;;;;;;2.70;2.20;;;11.20;99.90;;;;;;5021822;28;20623;-78
2022/05/16 00:45:31;;;;;;;3.40;2.03;;;11.20;99.90;;;;;;5022200;28;20580;-76
2022/05/16 00:47:59;;;;;;;6.63;2.28;;;11.20;99.90;;;;;;5020984;28;20940;-77
2022/05/16 00:50:28;;;;;;;4.63;1.97;;;11.20;99.90;;;;;;5020730;28;20214;-78
2022/05/16 00:52:57;;;;;;;2.20;1.60;;;11.10;99.90;;;;;;5021782;28;20453;-77
2022/05/16 00:55:29;;;;;;;3.57;1.93;;;11.10;99.90;;;;;;5021543;28;20456;-77
2022/05/16 00:58:02;;;;;;;5.00;2.37;;;11.10;99.90;;;;;;5021223;28;20449;-76
2022/05/16 01:00:33;;;;;;;4.23;2.60;;;11.10;99.90;;;;;;5020326;28;20527;-76
2022/05/16 01:05:52;;;;;;;2.50;1.77;;;11.00;99.90;;;;;;5020903;28;20187;-76
2022/05/16 01:08:24;;;;;;;4.80;2.43;;;11.00;99.90;;;;;;5020100;28;20999;-75
2022/05/16 01:10:55;;;;;;;4.82;1.95;;;10.90;99.90;;;;;;5020912;28;20445;-76
2022/05/16 01:13:24;;;;;;;2.33;2.13;;;11.00;99.90;;;;;;5020691;28;20206;-77
2022/05/16 01:15:52;;;;;;;4.63;2.13;;;10.90;99.90;;;;;;5023346;28;20475;-75
2022/05/16 01:18:22;;;;;;;6.88;2.55;;;10.90;99.90;;;;;;5023700;28;20548;-75
2022/05/16 01:21:04;;;;;;;5.00;2.10;;;10.90;99.90;;;;;;5022419;28;20346;-78
2022/05/16 01:23:38;;;;;;;5.30;2.33;;;10.90;99.90;;;;;;5023578;28;20453;-76
2022/05/16 01:26:11;;;;;;;6.30;2.70;;;10.90;99.90;;;;;;5021218;28;20661;-77
2022/05/16 01:28:38;;;;;;;8.83;4.00;;;10.80;99.90;;;;;;5022153;28;20206;-77
2022/05/16 01:31:06;;;;;;;2.30;1.90;;;10.80;99.90;;;;;;5023051;28;20616;-78
2022/05/16 01:33:35;;;;;;;4.93;1.90;;;10.80;99.90;;;;;;5023302;28;20457;-77
2022/05/16 01:36:03;;;;;;;5.75;2.17;;;10.80;99.90;;;;;;5021823;28;20451;-76
2022/05/16 01:38:32;;;;;;;3.13;2.50;;;10.80;99.90;;;;;;5021200;28;20202;-77
2022/05/16 01:41:04;;;;;;;6.77;2.67;;;10.80;99.90;;;;;;5021230;28;20325;-76
2022/05/16 01:43:34;;;;;;;5.32;2.40;;;10.70;99.90;;;;;;5020393;28;20468;-76
2022/05/16 01:46:02;;;;;;;2.55;2.35;;;10.70;99.90;;;;;;5022780;28;20764;-76
2022/05/16 01:48:31;;;;;;;3.53;2.50;;;10.70;99.90;;;;;;5020459;28;20837;-77
2022/05/16 01:51:01;;;;;;;4.10;2.43;;;10.70;99.90;;;;;;5021509;28;20861;-75
2022/05/16 01:53:29;;;;;;;3.38;2.50;;;10.70;99.90;;;;;;5021805;28;20441;-77
2022/05/16 01:55:58;;;;;;;3.47;2.90;;;10.70;99.90;;;;;;5023437;28;20206;-77
2022/05/16 01:58:27;;;;;;;8.00;3.00;;;10.70;99.90;;;;;;5023963;28;20445;-77
2022/05/16 02:00:55;;;;;;;5.90;2.85;;;10.70;99.90;;;;;;5023367;28;20572;-77
2022/05/16 02:03:23;;;;;;;4.80;2.70;;;10.70;99.90;;;;;;5024352;28;20723;-79
2022/05/16 02:05:52;;;;;;;4.78;2.58;;;10.70;99.90;;;;;;5024822;28;20444;-79
2022/05/16 02:08:20;;;;;;;3.50;3.20;;;10.70;99.90;;;;;;5024744;28;20198;-79
2022/05/16 02:10:48;;;;;;;4.73;2.80;;;10.70;99.90;;;;;;5026165;28;20469;-80
2022/05/16 02:13:17;;;;;;;5.37;2.30;;;10.70;99.90;;;;;;5026743;28;20485;-78
2022/05/16 02:15:46;;;;;;;6.70;2.70;;;10.70;99.90;;;;;;5027482;28;20473;-81
2022/05/16 02:18:17;;;;;;;2.97;2.50;;;10.70;99.90;;;;;;5025262;28;20447;-78
2022/05/16 02:20:45;;;;;;;6.17;2.40;;;10.70;99.90;;;;;;5025928;28;20473;-80
2022/05/16 02:25:59;;;;;;;4.63;2.23;;;10.70;99.90;;;;;;5035231;28;20428;-78
2022/05/16 02:28:27;;;;;;;4.32;2.70;;;10.70;99.90;;;;;;5037388;28;20433;-72
2022/05/16 02:30:57;;;;;;;5.37;2.50;;;10.70;99.90;;;;;;5037050;28;20316;-76
2022/05/16 02:33:25;;;;;;;2.78;2.35;;;10.70;99.90;;;;;;5056173;28;20424;-76
2022/05/16 02:35:53;;;;;;;3.33;2.70;;;10.80;99.90;;;;;;5051861;28;20201;-69
2022/05/16 02:38:21;;;;;;;2.33;1.90;;;10.80;99.90;;;;;;5043643;28;20448;-78
2022/05/16 02:40:53;;;;;;;8.70;3.03;;;10.80;99.90;;;;;;5047662;28;20460;-82
2022/05/16 02:43:21;;;;;;;5.00;2.78;;;10.80;99.90;;;;;;5046255;28;20444;-80
2022/05/16 02:45:49;;;;;;;6.17;3.00;;;10.80;99.90;;;;;;5052192;28;20228;-80
2022/05/16 02:48:18;;;;;;;2.83;2.47;;;10.80;99.90;;;;;;5067851;28;20444;-78
2022/05/16 02:50:46;;;;;;;4.63;3.05;;;10.80;99.90;;;;;;5064820;28;20547;-77
2022/05/16 02:53:14;;;;;;;3.85;3.50;;;10.80;99.90;;;;;;5051023;28;20204;-80
2022/05/16 02:55:42;;;;;;;4.17;2.80;;;10.80;99.90;;;;;;5047411;28;20684;-80
2022/05/16 02:58:10;;;;;;;2.97;2.65;;;10.80;99.90;;;;;;5053348;28;20444;-80
2022/05/16 03:00:39;;;;;;;4.60;3.20;;;10.80;99.90;;;;;;5051779;28;20285;-80
2022/05/16 03:03:07;;;;;;;5.35;3.33;;;10.70;99.90;;;;;;5047450;28;20309;-79
2022/05/16 03:05:36;;;;;;;9.05;3.85;;;10.70;99.90;;;;;;5044684;28;20202;-78
2022/05/16 03:08:04;;;;;;;3.00;2.37;;;10.70;99.90;;;;;;5048541;28;20236;-79
2022/05/16 03:10:32;;;;;;;5.90;2.85;;;10.70;99.90;;;;;;5045121;28;20452;-76
2022/05/16 03:13:00;;;;;;;4.55;3.10;;;10.70;99.90;;;;;;5048489;28;20204;-77
2022/05/16 03:15:30;;;;;;;3.70;2.27;;;10.70;99.90;;;;;;5048849;28;20209;-79
2022/05/16 03:17:58;;;;;;;6.82;2.72;;;10.70;99.90;;;;;;5051512;28;20511;-76
2022/05/16 03:20:26;;;;;;;3.08;2.38;;;10.70;99.90;;;;;;5045872;28;20891;-80
2022/05/16 03:22:55;;;;;;;4.70;3.10;;;10.80;99.90;;;;;;5046434;28;20218;-77
2022/05/16 03:25:23;;;;;;;4.03;2.17;;;10.80;99.90;;;;;;5049217;28;20459;-80
2022/05/16 03:27:52;;;;;;;3.20;2.83;;;10.70;99.90;;;;;;5051499;28;20451;-79
2022/05/16 03:30:20;;;;;;;11.73;3.85;;;10.70;99.90;;;;;;5050081;28;20476;-80
2022/05/16 03:32:49;;;;;;;3.55;2.30;;;10.80;99.90;;;;;;5050511;28;20816;-79
2022/05/16 03:35:17;;;;;;;2.03;1.92;;;10.80;99.90;;;;;;5049662;28;20218;-79
2022/05/16 03:37:46;;;;;;;3.00;2.30;;;10.80;99.90;;;;;;5049706;28;20684;-78
2022/05/16 03:43:02;;;;;;;2.70;2.50;;;10.80;99.90;;;;;;5048779;28;20482;-79
2022/05/16 03:45:30;;;;;;;4.93;2.97;;;10.80;99.90;;;;;;5050842;28;20451;-78
2022/05/16 03:47:58;;;;;;;9.07;3.67;;;10.80;99.90;;;;;;5049428;28;21141;-79
2022/05/16 03:50:27;;;;;;;6.33;2.97;;;10.80;99.90;;;;;;5050767;28;20558;-79
2022/05/16 03:52:58;;;;;;;4.80;2.50;;;10.80;99.90;;;;;;5049810;28;20432;-81
2022/05/16 03:55:28;;;;;;;3.75;2.75;;;10.80;99.90;;;;;;5047127;28;20464;-77
2022/05/16 03:57:56;;;;;;;4.73;2.90;;;10.80;99.90;;;;;;5043909;28;20309;-77
2022/05/16 04:00:24;;;;;;;4.00;2.20;;;10.80;99.90;;;;;;5046609;28;20725;-80
2022/05/16 04:02:52;;;;;;;5.70;2.60;;;10.80;99.90;;;;;;5049299;28;21037;-79
2022/05/16 04:05:23;;;;;;;5.73;2.70;;;10.90;99.90;;;;;;5047609;28;20466;-75
2022/05/16 04:07:51;;;;;;;4.23;3.10;;;10.90;99.90;;;;;;5044105;28;20482;-77
2022/05/16 04:10:20;;;;;;;3.80;2.23;;;10.90;99.90;;;;;;5048862;28;20468;-79
2022/05/16 04:12:50;;;;;;;3.37;3.10;;;10.90;99.90;;;;;;5044661;28;20535;-78
2022/05/16 04:15:18;;;;;;;10.35;4.03;;;10.90;99.90;;;;;;5041980;28;20870;-78
2022/05/16 04:17:47;;;;;;;2.83;2.63;;;10.90;99.90;;;;;;5044406;28;20289;-79
2022/05/16 04:20:16;;;;;;;5.30;2.47;;;11.00;99.90;;;;;;5043437;28;20475;-78
2022/05/16 04:22:44;;;;;;;3.83;2.58;;;11.00;99.90;;;;;;5042588;28;20698;-75
2022/05/16 04:25:15;;;;;;;6.43;2.73;;;11.10;99.90;;;;;;5042166;28;20202;-77
2022/05/16 04:27:43;;;;;;;4.07;3.17;;;11.10;99.90;;;;;;5043350;28;21194;-77
2022/05/16 04:30:14;;;;;;;5.40;2.30;;;11.20;99.90;;;;;;5046774;28;20532;-78
2022/05/16 04:32:42;;;;;;;3.60;2.43;;;11.20;99.90;;;;;;5046933;28;20440;-77
2022/05/16 04:35:11;;;;;;;2.97;2.63;;;11.30;99.90;;;;;;5045610;28;20447;-77
2022/05/16 04:37:39;;;;;;;5.63;2.37;;;11.30;99.90;;;;;;5041304;28;20444;-76
2022/05/16 04:40:10;;;;;;;5.23;2.70;;;11.30;99.90;;;;;;5041438;28;20535;-77
2022/05/16 04:42:40;;;;;;;5.93;3.00;;;11.40;99.90;;;;;;5042358;28;20490;-78
2022/05/16 04:45:16;;;;;;;5.80;2.70;;;11.40;99.90;;;;;;5043315;28;20604;-76
2022/05/16 04:47:46;;;;;;;3.93;2.57;;;11.50;99.90;;;;;;5051055;28;20443;-79
2022/05/16 04:50:16;;;;;;;7.23;2.97;;;11.60;99.90;;;;;;5048661;28;20914;-80
2022/05/16 04:52:44;;;;;;;3.63;2.20;;;11.70;99.90;;;;;;5047648;28;20435;-81
2022/05/16 04:55:12;;;;;;;5.10;2.30;;;11.80;99.90;;;;;;5045209;28;20724;-80
2022/05/16 04:57:41;;;;;;;4.50;3.60;;;11.80;99.90;;;;;;5045754;28;20444;-80
2022/05/16 05:00:17;;;;;;;4.63;3.10;;;11.90;99.90;;;;;;5058435;28;20436;-80
2022/05/16 05:02:45;;;;;;;4.20;2.23;;;11.90;99.90;;;;;;5061924;28;20467;-79
2022/05/16 05:05:14;;;;;;;8.50;3.13;;;12.00;99.90;;;;;;5059890;28;20444;-79
2022/05/16 05:07:43;;;;;;;2.23;2.03;;;12.10;99.90;;;;;;5061012;28;20568;-77
2022/05/16 05:15:48;;;;;;;3.03;2.83;;;12.30;99.90;;;;;;5045809;28;20820;-78
2022/05/16 05:18:16;;;;;;;5.43;2.70;;;12.30;99.90;;;;;;5040517;28;20447;-80
2022/05/16 05:20:45;;;;;;;4.77;2.53;;;12.40;99.90;;;;;;5042260;28;20482;-79
2022/05/16 05:23:13;;;;;;;3.70;2.77;;;12.50;99.90;;;;;;5040718;28;21024;-79
2022/05/16 05:25:41;;;;;;;4.03;3.63;;;12.50;99.90;;;;;;5043743;28;20432;-79
2022/05/16 05:28:09;;;;;;;5.47;3.07;;;12.60;99.90;;;;;;5043880;28;20535;-79
2022/05/16 05:30:37;;;;;;;3.60;2.80;;;12.70;99.90;;;;;;5044343;28;20468;-80
2022/05/16 05:33:07;;;;;;;7.47;3.43;;;12.70;99.90;;;;;;5042789;28;20530;-80
2022/05/16 05:35:34;;;;;;;2.17;1.97;;;12.80;99.90;;;;;;5042221;28;20542;-78
2022/05/16 05:38:02;;;;;;;5.83;2.70;;;12.80;99.90;;;;;;5044476;28;20452;-80
2022/05/16 05:40:30;;;;;;;7.23;2.90;;;12.90;99.90;;;;;;5043176;28;20456;-81
2022/05/16 05:43:04;;;;;;;7.00;3.20;;;13.00;99.90;;;;;;5045192;28;20464;-82
2022/05/16 05:45:32;;;;;;;3.20;2.00;;;13.10;99.90;;;;;;5045686;28;20480;-82
2022/05/16 05:48:02;;;;;;;7.83;2.70;;;13.10;99.90;;;;;;5048271;28;20432;-83
2022/05/16 05:50:34;;;;;;;5.97;2.40;;;13.20;99.90;;;;;;5053382;28;20452;-78
2022/05/16 05:53:03;;;;;;;6.50;2.57;;;13.30;99.90;;;;;;5054509;28;20428;-79
2022/05/16 05:55:31;;;;;;;2.60;2.07;;;13.40;99.90;;;;;;5059074;28;20450;-81
2022/05/16 05:57:59;;;;;;;9.07;3.07;;;13.40;99.90;;;;;;5061467;28;20443;-80
2022/05/16 06:00:27;;;;;;;3.50;1.83;;;13.50;99.90;;;;;;5060047;28;20531;-80
2022/05/16 06:02:56;;;;;;;4.80;2.10;;;13.60;99.90;;;;;;5050624;28;20523;-80
2022/05/16 06:05:24;;;;;;;7.90;3.10;;;13.70;99.90;;;;;;5055541;28;20659;-80
2022/05/16 06:07:53;;;;;;;6.47;2.67;;;13.80;99.90;;;;;;5058658;28;20490;-81
2022/05/16 06:10:22;;;;;;;6.70;2.67;;;13.90;99.90;;;;;;5053343;28;20495;-77
2022/05/16 06:12:50;;;;;;;5.33;2.67;;;14.00;99.90;;;;;;5041438;28;20530;-76
2022/05/16 06:15:18;;;;;;;3.73;2.70;;;14.10;99.90;;;;;;5044112;28;20452;-80
2022/05/16 06:17:47;;;;;;;5.33;2.50;;;14.20;99.90;;;;;;5042971;28;20716;-80
2022/05/16 06:20:16;;;;;;;2.97;2.33;;;14.30;99.90;;;;;;5045104;28;20487;-80
2022/05/16 06:22:44;;;;;;;3.37;2.33;;;14.40;99.90;;;;;;5039163;28;21195;-73
2022/05/16 06:25:34;;;;;;;6.80;2.60;;;14.50;99.90;;;;;;5038903;28;21017;-77
2022/05/16 06:28:05;;;;;;;6.43;2.30;;;14.60;99.90;;;;;;5041361;28;20451;-69
2022/05/16 06:30:35;;;;;;;3.43;2.33;;;14.70;99.90;;;;;;5048053;28;20471;-71
2022/05/16 06:33:03;;;;;;;2.60;2.40;;;14.90;99.90;;;;;;5056955;28;21172;-70
2022/05/16 06:35:30;;;;;;;4.97;2.30;;;15.00;99.90;;;;;;5055471;28;20458;-71
2022/05/16 06:38:05;;;;;;;3.37;2.17;;;15.10;99.90;;;;;;5046815;28;20454;-70
2022/05/16 06:40:39;;;;;;;9.20;2.80;;;15.30;99.90;;;;;;5049551;28;21001;-73
2022/05/16 06:43:08;;;;;;;2.83;2.23;;;15.40;99.90;;;;;;5051084;28;20559;-71
2022/05/16 06:45:37;;;;;;;5.53;2.70;;;15.40;99.90;;;;;;5044145;28;20449;-71
2022/05/16 06:48:06;;;;;;;5.40;3.30;;;15.40;99.90;;;;;;5042751;28;20451;-71
2022/05/16 06:50:37;;;;;;;3.63;2.53;;;15.50;99.90;;;;;;5051940;28;20562;-73
2022/05/16 06:53:05;;;;;;;5.43;2.47;;;15.60;99.90;;;;;;5059633;28;20474;-70
2022/05/16 06:55:33;;;;;;;2.63;2.43;;;15.70;99.90;;;;;;5058998;28;20573;-70
2022/05/16 06:58:03;;;;;;;3.47;2.33;;;15.80;99.90;;;;;;5044296;28;21110;-72
2022/05/16 07:00:31;;;;;;;3.80;2.50;;;15.80;99.90;;;;;;5052076;28;20451;-71
2022/05/16 07:02:59;;;;;;;3.23;1.90;;;16.00;99.90;;;;;;5059775;28;20447;-72
2022/05/16 07:05:46;;;;;;;3.40;2.40;;;16.00;99.90;;;;;;5039966;28;20440;-70
2022/05/16 07:08:14;;;;;;;6.83;2.77;;;16.10;99.90;;;;;;5043249;28;20448;-71
2022/05/16 07:10:42;;;;;;;4.63;2.70;;;16.20;99.90;;;;;;5044174;28;20463;-72
2022/05/16 07:13:13;;;;;;;3.03;1.97;;;16.20;99.90;;;;;;5043777;28;20916;-71
2022/05/16 07:15:42;;;;;;;5.03;2.77;;;16.20;99.90;;;;;;5046334;28;20435;-70
2022/05/16 07:18:11;;;;;;;4.47;3.43;;;16.30;99.90;;;;;;5045109;28;20478;-70
2022/05/16 07:20:40;;;;;;;5.00;2.33;;;16.50;99.90;;;;;;5044590;28;20484;-69
2022/05/16 07:23:08;;;;;;;7.20;3.83;;;16.50;99.90;;;;;;5043816;28;20450;-70
2022/05/16 07:28:19;;;;;;;6.07;2.50;;;16.80;99.90;;;;;;5039923;28;20455;-69
2022/05/16 07:30:47;;;;;;;4.50;2.50;;;16.90;99.90;;;;;;5055404;28;20497;-71
2022/05/16 07:33:15;;;;;;;11.03;3.13;;;17.10;99.90;;;;;;5044438;28;20460;-69
2022/05/16 07:35:43;;;;;;;2.80;2.50;;;17.10;99.90;;;;;;5042720;28;20521;-68
2022/05/16 07:38:11;;;;;;;5.27;2.60;;;17.10;99.90;;;;;;5040857;28;20448;-70
2022/05/16 07:40:39;;;;;;;6.13;2.60;;;17.20;99.90;;;;;;5041287;28;20490;-69
2022/05/16 07:43:07;;;;;;;5.30;2.80;;;17.30;99.90;;;;;;5040709;28;20606;-70
2022/05/16 07:45:36;;;;;;;4.50;2.23;;;17.40;99.90;;;;;;5041690;28;20510;-70
2022/05/16 07:48:05;;;;;;;4.30;2.77;;;17.50;99.90;;;;;;5041537;28;20798;-71
2022/05/16 07:50:36;;;;;;;3.20;2.70;;;17.60;99.90;;;;;;5040827;28;20503;-72
2022/05/16 07:53:05;;;;;;;4.07;2.20;;;17.70;99.90;;;;;;5041320;28;20445;-71
2022/05/16 07:55:33;;;;;;;3.37;2.43;;;17.80;99.90;;;;;;5040421;28;20464;-72
2022/05/16 07:58:00;;;;;;;5.00;2.70;;;18.00;99.90;;;;;;5040519;28;20448;-70
2022/05/16 08:00:28;;;;;;;4.63;1.70;;;18.10;99.90;;;;;;5040964;28;20467;-72
2022/05/16 08:02:58;;;;;;;4.37;2.40;;;18.20;99.90;;;;;;5042832;28;20446;-73
2022/05/16 08:05:27;;;;;;;2.43;2.13;;;18.40;99.90;;;;;;5040903;28;20597;-70
2022/05/16 08:10:42;;;;;;;2.63;2.23;;;18.50;99.90;;;;;;5039493;28;20475;-72
2022/05/16 08:13:12;;;;;;;3.97;2.60;;;18.70;99.90;;;;;;5040113;28;20837;-69
2022/05/16 08:15:42;;;;;;;3.90;2.40;;;18.80;99.90;;;;;;5040092;28;20518;-70
2022/05/16 08:18:12;;;;;;;3.30;2.27;;;18.90;99.90;;;;;;5040074;28;20625;-69
2022/05/16 08:20:43;;;;;;;3.80;2.73;;;19.10;99.90;;;;;;5039607;28;20624;-72
2022/05/16 08:23:12;;;;;;;6.73;2.47;;;19.10;99.90;;;;;;5039067;28;21060;-71
2022/05/16 08:25:40;;;;;;;5.07;3.00;;;19.10;99.90;;;;;;5039818;28;20479;-71
2022/05/16 08:28:08;;;;;;;3.60;2.40;;;19.10;99.90;;;;;;5039621;28;20455;-71
2022/05/16 08:30:36;;;;;;;4.40;2.40;;;19.10;99.90;;;;;;5040074;28;20992;-69
2022/05/16 08:33:05;;;;;;;3.67;2.60;;;19.00;99.90;;;;;;5040205;28;20805;-70
2022/05/16 08:35:34;;;;;;;7.33;2.90;;;19.10;99.90;;;;;;5040716;28;20438;-73
2022/05/16 08:40:55;;;;;;;2.57;2.37;;;19.20;99.90;;;;;;5039065;28;20467;-70
2022/05/16 08:43:43;;;;;;;4.60;3.00;;;19.30;99.90;;;;;;5039425;28;20868;-70
2022/05/16 08:46:19;;;;;;;9.17;3.10;;;19.40;99.90;;;;;;5039003;28;21027;-71
2022/05/16 08:48:52;;;;;;;6.87;2.20;;;19.30;99.90;;;;;;5039059;28;20478;-71
2022/05/16 08:51:25;;;;;;;3.83;2.13;;;19.30;99.90;;;;;;5038539;28;20470;-72
2022/05/16 08:54:03;;;;;;;3.50;2.63;;;19.40;99.90;;;;;;5037983;28;20438;-71
2022/05/16 08:56:34;;;;;;;4.17;2.47;;;19.40;99.90;;;;;;5039761;28;20436;-71
2022/05/16 08:59:05;;;;;;;2.37;1.90;;;19.40;99.90;;;;;;5039517;28;20470;-71
2022/05/16 09:01:37;;;;;;;3.47;1.90;;;19.60;99.90;;;;;;5039140;28;20463;-71
2022/05/16 09:04:12;;;;;;;6.67;2.57;;;19.70;99.90;;;;;;5039477;28;20977;-71
2022/05/16 09:06:45;;;;;;;4.00;2.07;;;19.70;99.90;;;;;;5039251;28;20880;-70
2022/05/16 09:09:15;;;;;;;2.60;2.37;;;19.70;99.90;;;;;;5039655;28;20439;-69
2022/05/16 09:11:54;;;;;;;2.83;2.50;;;19.70;99.90;;;;;;5039730;28;20866;-72
2022/05/16 09:14:53;;;;;;;2.53;2.10;;;19.70;99.90;;;;;;5039124;28;20459;-70
2022/05/16 09:17:29;;;;;;;3.37;2.67;;;19.70;99.90;;;;;;5039065;28;20455;-70
2022/05/16 09:20:10;;;;;;;3.17;2.43;;;19.80;99.90;;;;;;5049446;28;20452;-69
2022/05/16 09:22:46;;;;;;;2.30;1.80;;;19.90;99.90;;;;;;5047321;28;20746;-69
2022/05/16 09:25:18;;;;;;;4.07;2.37;;;20.00;99.90;;;;;;5044598;28;20574;-69
2022/05/16 09:30:38;;;;;;;3.40;2.33;;;20.00;99.90;;;;;;5054721;28;20463;-74
2022/05/16 09:33:12;;;;;;;2.87;2.50;;;20.00;99.90;;;;;;5039417;28;20479;-73
2022/05/16 09:35:46;;;;;;;3.13;2.40;;;20.10;99.90;;;;;;5054447;28;20471;-75
2022/05/16 09:38:16;;;;;;;4.10;2.00;;;20.10;99.90;;;;;;5039292;28;20447;-73
2022/05/16 09:41:01;;;;;;;3.40;2.03;;;20.20;99.90;;;;;;5044564;28;20980;-75
2022/05/16 09:43:40;;;;;;;2.43;2.20;;;20.40;99.90;;;;;;5036540;28;20995;-77
2022/05/16 09:46:24;;;;;;;4.00;2.60;;;20.50;99.90;;;;;;5053671;28;20482;-78
2022/05/16 09:49:11;;;;;;;5.30;2.80;;;20.60;99.90;;;;;;5048623;28;20526;-76
2022/05/16 09:51:42;;;;;;;2.60;2.10;;;20.70;99.90;;;;;;5061611;28;20546;-78
2022/05/16 09:54:19;;;;;;;3.20;2.20;;;20.80;99.90;;;;;;5052139;28;20443;-75
2022/05/16 09:57:16;;;;;;;3.50;1.93;;;20.90;99.90;;;;;;5053655;28;21011;-76
2022/05/16 09:59:50;;;;;;;3.07;2.53;;;20.90;99.90;;;;;;5048019;28;20610;-75
2022/05/16 10:02:28;;;;;;;3.60;2.10;;;20.90;99.90;;;;;;5045744;28;20460;-80
2022/05/16 10:05:00;;;;;;;2.60;2.40;;;21.00;99.90;;;;;;5048658;28;20456;-77
2022/05/16 10:07:32;;;;;;;2.27;2.17;;;21.20;99.90;;;;;;5052417;28;20455;-78
2022/05/16 10:10:02;;;;;;;4.23;2.47;;;21.20;99.90;;;;;;5060510;28;20462;-78
2022/05/16 10:12:30;;;;;;;1.97;1.80;;;21.20;99.90;;;;;;5050837;28;20531;-78
2022/05/16 10:15:00;;;;;;;3.23;2.10;;;21.40;99.90;;;;;;5049198;28;20539;-76
2022/05/16 10:17:36;;;;;;;2.00;1.90;;;21.40;99.90;;;;;;5050673;28;20834;-76
2022/05/16 10:20:14;;;;;;;3.23;2.30;;;21.50;99.90;;;;;;5057523;28;20517;-74
2022/05/16 10:22:44;;;;;;;4.00;3.10;;;21.60;99.90;;;;;;5068640;28;20451;-78
2022/05/16 10:25:35;;;;;;;3.10;2.10;;;21.70;99.90;;;;;;5051121;28;20819;-76
2022/05/16 10:28:08;;;;;;;3.43;1.80;;;21.70;99.90;;;;;;5041255;28;20454;-77
2022/05/16 10:33:28;;;;;;;5.00;2.57;;;21.80;99.90;;;;;;5046328;28;20460;-77
2022/05/16 10:36:00;;;;;;;3.80;2.40;;;21.90;99.90;;;;;;5059434;28;21025;-79
2022/05/16 10:38:37;;;;;;;2.63;2.20;;;22.00;99.90;;;;;;5049500;28;20883;-78
2022/05/16 10:41:11;;;;;;;3.10;2.80;;;22.00;99.90;;;;;;5044004;28;20485;-80
2022/05/16 10:43:51;;;;;;;2.77;2.17;;;22.10;99.90;;;;;;5042969;28;20460;-77
2022/05/16 10:46:22;;;;;;;2.17;2.03;;;22.20;99.90;;;;;;5045457;28;21012;-79
2022/05/16 10:49:00;;;;;;;3.33;2.17;;;22.30;99.90;;;;;;5042389;28;20461;-76
2022/05/16 10:51:34;;;;;;;2.13;1.60;;;22.30;99.90;;;;;;5052908;28;21063;-80
2022/05/16 10:54:07;;;;;;;6.83;2.70;;;22.40;99.90;;;;;;5021033;28;20456;-78
2022/05/16 10:57:13;;;;;;;3.33;1.90;;;22.40;99.90;;;;;;5043164;28;20455;-79
2022/05/16 11:00:14;;;;;;;3.80;2.07;;;22.50;99.90;;;;;;5050136;28;20471;-78
2022/05/16 11:02:59;;;;;;;2.60;2.40;;;22.70;99.90;;;;;;4985638;28;20438;-80
2022/05/16 11:05:39;;;;;;;3.13;1.93;;;22.80;99.90;;;;;;5046240;28;20540;-77
2022/05/16 11:08:25;;;;;;;2.27;2.07;;;22.80;99.90;;;;;;5044962;28;20505;-77
2022/05/16 11:10:58;;;;;;;4.70;2.33;;;22.80;99.90;;;;;;5052403;28;20555;-79
2022/05/16 11:13:38;;;;;;;5.23;1.70;;;22.90;99.90;;;;;;5047998;28;20558;-77
2022/05/16 11:16:12;;;;;;;3.43;2.13;;;23.00;99.90;;;;;;5040200;28;20528;-77
2022/05/16 11:18:46;;;;;;;2.10;1.97;;;23.10;99.90;;;;;;5053599;28;20510;-77
2022/05/16 11:21:32;;;;;;;5.10;2.00;;;23.10;99.70;;;;;;5062681;28;20469;-79
2022/05/16 11:24:10;;;;;;;3.27;2.13;;;23.10;99.90;;;;;;5055865;28;20971;-76
2022/05/16 11:26:44;;;;;;;2.40;1.90;;;23.10;99.40;;;;;;5045046;28;20807;-76
2022/05/16 11:29:33;;;;;;;2.37;1.97;;;23.20;99.30;;;;;;5044408;28;20706;-77
2022/05/16 11:32:12;;;;;;;3.20;2.27;;;23.30;99.40;;;;;;5048593;28;21020;-78
2022/05/16 11:34:56;;;;;;;2.40;1.67;;;23.40;99.30;;;;;;5049466;28;20512;-76
2022/05/16 11:37:47;;;;;;;1.97;1.83;;;23.50;99.10;;;;;;5063516;28;20541;-76
2022/05/16 11:40:25;;;;;;;2.17;1.80;;;23.60;99.10;;;;;;5052158;28;20472;-77
2022/05/16 11:43:04;;;;;;;4.37;2.10;;;23.70;99.10;;;;;;5063223;28;20447;-77
2022/05/16 11:45:51;;;;;;;3.77;1.70;;;23.80;98.80;;;;;;5046099;28;20531;-76
2022/05/16 11:48:29;;;;;;;2.07;1.87;;;23.80;98.00;;;;;;5046377;28;20451;-77
2022/05/16 11:51:27;;;;;;;2.77;2.57;;;23.70;98.00;;;;;;5034187;28;20464;-76
2022/05/16 12:00:51;;;;;;;3.43;2.50;;;23.60;98.20;;;;;;5047007;28;21223;-78
2022/05/16 12:03:21;;;;;;;3.67;1.80;;;23.70;97.80;;;;;;5066301;28;20490;-79
2022/05/16 12:06:11;;;;;;;5.30;2.23;;;23.70;97.80;;;;;;5068769;28;20463;-78
2022/05/16 12:08:46;;;;;;;3.23;2.23;;;23.80;98.00;;;;;;5089774;28;20521;-79
2022/05/16 12:11:21;;;;;;;2.00;1.77;;;23.90;98.20;;;;;;5081201;28;20457;-76
2022/05/16 12:14:22;;;;;;;3.37;2.57;;;23.90;98.20;;;;;;5060097;28;20523;-78
2022/05/16 12:17:25;;;;;;;4.37;2.30;;;24.00;97.90;;;;;;5052634;28;20454;-76
2022/05/16 12:19:54;;;;;;;2.83;2.00;;;24.10;98.00;;;;;;5063305;28;20448;-79
2022/05/16 12:22:43;;;;;;;6.10;2.23;;;24.10;98.10;;;;;;5062178;28;20479;-77
2022/05/16 12:25:12;;;;;;;5.10;2.63;;;24.10;98.10;;;;;;5060590;28;20457;-78
2022/05/16 12:27:47;;;;;;;3.90;2.20;;;24.20;98.00;;;;;;5062418;28;20483;-76
2022/05/16 12:30:43;;;;;;;2.50;2.30;;;24.20;97.30;;;;;;5055679;28;20566;-78
2022/05/16 12:33:41;;;;;;;5.20;2.50;;;24.30;97.40;;;;;;5057928;28;20445;-77
2022/05/16 12:36:14;;;;;;;3.93;2.23;;;24.40;97.50;;;;;;5033579;28;20449;-80
2022/05/16 12:38:43;;;;;;;5.03;2.23;;;24.50;97.20;;;;;;5033767;28;20538;-77
2022/05/16 12:41:51;;;;;;;2.70;1.83;;;24.50;97.40;;;;;;5069722;28;20550;-77
2022/05/16 12:44:41;;;;;;;3.57;2.10;;;24.60;97.10;;;;;;5068522;28;20464;-79
2022/05/16 12:47:37;;;;;;;2.70;2.47;;;24.60;96.80;;;;;;5071836;28;20532;-77
2022/05/16 12:50:23;;;;;;;3.17;2.07;;;24.60;96.90;;;;;;5052603;28;20578;-79
2022/05/16 12:53:29;;;;;;;6.20;2.10;;;24.70;96.60;;;;;;5053478;28;20441;-80
2022/05/16 12:56:07;;;;;;;3.20;1.93;;;24.70;96.60;;;;;;5051403;28;20457;-79
2022/05/16 12:58:45;;;;;;;3.57;2.60;;;24.70;96.80;;;;;;5061201;28;20440;-80
2022/05/16 13:01:23;;;;;;;3.67;1.80;;;24.70;96.70;;;;;;5056187;28;20458;-78
2022/05/16 13:03:58;;;;;;;2.90;2.27;;;24.80;96.80;;;;;;5054624;28;20462;-78
2022/05/16 13:06:52;;;;;;;4.47;2.13;;;24.80;96.60;;;;;;5052224;28;20442;-79
2022/05/16 13:09:39;;;;;;;4.40;2.70;;;25.00;96.50;;;;;;5049922;28;20526;-78
2022/05/16 13:12:15;;;;;;;4.00;2.67;;;25.00;96.70;;;;;;5047669;28;20485;-78
2022/05/16 13:14:51;;;;;;;2.53;2.33;;;25.10;96.20;;;;;;5046434;28;20454;-78
2022/05/16 13:17:32;;;;;;;2.70;2.50;;;25.10;96.40;;;;;;5044177;28;20611;-78
2022/05/16 13:20:03;;;;;;;3.33;2.83;;;25.20;96.00;;;;;;5044124;28;21090;-78
2022/05/16 13:22:32;;;;;;;2.63;2.30;;;25.30;95.90;;;;;;5044154;28;20533;-77
2022/05/16 13:25:02;;;;;;;2.50;2.30;;;25.30;96.00;;;;;;5041910;28;21043;-76
2022/05/16 13:30:18;;;;;;;3.70;2.53;;;25.50;95.50;;;;;;5048282;28;20459;-80
2022/05/16 13:32:48;;;;;;;3.33;2.10;;;25.70;95.60;;;;;;5048316;28;20661;-80
2022/05/16 13:35:28;;;;;;;3.23;2.20;;;25.70;95.60;;;;;;5048100;28;20541;-77
2022/05/16 13:37:57;;;;;;;4.27;2.47;;;25.70;95.00;;;;;;5046872;28;20563;-75
2022/05/16 13:40:31;;;;;;;4.73;2.43;;;25.70;95.40;;;;;;5039286;28;20484;-74
2022/05/16 13:42:59;;;;;;;3.27;1.93;;;25.70;95.80;;;;;;5039774;28;20497;-74
2022/05/16 13:45:33;;;;;;;4.20;2.33;;;25.70;95.60;;;;;;5039419;28;20514;-76
2022/05/16 13:48:04;;;;;;;3.73;2.10;;;25.80;95.80;;;;;;5038920;28;20554;-75
2022/05/16 13:50:33;;;;;;;2.80;2.60;;;25.90;95.70;;;;;;5039326;28;20952;-76